Impacts METAR Board
IDs:

KCRS - Corsicana Muni, TX, US

Updated at: 1300 UTC 14 Dec 2019
Potential Impact None Slight Moderate High
Time 14/01Z 14/02Z 14/03Z 14/04Z 14/05Z 14/06Z 14/07Z 14/08Z 14/09Z 14/10Z 14/11Z 14/12Z 14/13Z
Temp54 52 54 50 50 42 42 42 42 42 39 37 39
Dewpt45 44 44 43 43 40 40 42 41 41 39 36 39
Altim29.87 29.88 29.87 29.89 29.88 29.87 29.88 29.87 29.90 29.90 29.88 29.89 29.91
VIS10 10 10 10 9 8 4 2.5 4 3 1.5 1.25 1.75
CIG-- -- -- -- -- -- -- -- -- -- -- -- --
CoverCLRCLRCLRCLRCLRCLRCLRCLRCLRCLRCLRFEWFEW
FltCatVFRVFRVFRVFRVFRVFRMVFRIFRMVFRMVFRIFRIFRIFR
WX------------BRBRBRBRBRBRBR
WDir29036020360300003303503502400
WSpd5 3 3 5 6 0 0 0 5 3 3 5 0
WGst-- -- -- -- -- -- -- -- -- -- -- -- --
Raw hourly METARs
KCRS 140053Z AUTO 29005KT 10SM CLR 12/07 A2987 RMK AO2 SLP114 T01220072
KCRS 140153Z AUTO 36003KT 10SM CLR 11/07 A2988 RMK AO2 SLP117 T01110067
KCRS 140253Z AUTO 02003KT 10SM CLR 12/07 A2987 RMK AO2 SLP115 T01220067 50007
KCRS 140353Z AUTO 36005KT 10SM CLR 10/06 A2989 RMK AO2 SLP119 T01000061
KCRS 140453Z AUTO 03006KT 9SM CLR 10/06 A2988 RMK AO2 SLP117 T01000061
KCRS 140553Z AUTO 00000KT 8SM CLR 06/04 A2987 RMK AO2 SLP115 T00560044 10128 20056 401830056 58001
KCRS 140653Z AUTO 00000KT 4SM BR CLR 06/04 A2988 RMK AO2 SLP116 T00560044
KCRS 140753Z AUTO 00000KT 2 1/2SM BR CLR 06/06 A2987 RMK AO2 SLP113 T00560056
KCRS 140901Z AUTO 33005KT 4SM BR CLR 06/05 A2990 RMK AO2 T00560050
KCRS 140953Z AUTO 35003KT 3SM BR CLR 06/05 A2990 RMK AO2 SLP123 T00560050
KCRS 141100Z AUTO 35003KT 1 1/2SM BR CLR 04/04 A2988 RMK AO2 T00390039
KCRS 141159Z AUTO 24005KT 1 1/4SM BR FEW003 03/02 A2989 RMK AO2 T00280022
KCRS 141253Z AUTO 00000KT 1 3/4SM BR FEW003 04/04 A2991 RMK AO2 SLP128 T00390039



Page loaded:  13:45 UTC  |   05:45 AM Pacific  |   06:45 AM Mountain  |   07:45 AM Central  |   08:45 AM Eastern

 

ADVISORIES

FORECASTS

FORECASTS

OBSERVATIONS

USER TOOLS

ABOUT US